Time,TemperatureF,DewpointF,PressureIn,WindDirection,WindDirectionDegrees,WindSpeedMPH,WindSpeedGustMPH,Humidity,HourlyPrecipIn,Conditions,Clouds,dailyrainin,SoftwareType,DateUTC
2013-06-19 00:08:00,75.4,69.1,29.96,SE,135,4.3,-999.0,81,-99.99,,,0.00,Acu-Link.com,2013-06-19 05:08:00,
2013-06-19 00:23:00,74.5,69.3,29.95,SE,135,4.7,-999.0,84,-99.99,,,0.00,Acu-Link.com,2013-06-19 05:23:00,
2013-06-19 00:38:00,74.1,69.3,29.96,SE,135,4.7,-999.0,85,-99.99,,,0.00,Acu-Link.com,2013-06-19 05:38:00,
2013-06-19 00:54:00,73.6,69.5,29.96,ESE,112,3.1,-999.0,87,-99.99,,,0.00,Acu-Link.com,2013-06-19 05:54:00,
2013-06-19 01:09:00,73.2,69.4,29.95,SE,135,3.8,-999.0,88,-99.99,,,0.00,Acu-Link.com,2013-06-19 06:09:00,
2013-06-19 01:24:00,73.0,69.6,29.95,SE,135,6.7,-999.0,89,-99.99,,,0.00,Acu-Link.com,2013-06-19 06:24:00,
2013-06-19 01:39:00,72.9,69.4,29.94,ESE,112,6.7,-999.0,89,-99.99,,,0.00,Acu-Link.com,2013-06-19 06:39:00,
2013-06-19 01:54:00,72.7,69.2,29.94,SE,135,6.7,-999.0,89,-99.99,,,0.00,Acu-Link.com,2013-06-19 06:54:00,
2013-06-19 02:10:00,72.5,69.4,29.95,SE,135,5.8,-999.0,90,-99.99,,,0.00,Acu-Link.com,2013-06-19 07:10:00,
2013-06-19 02:25:00,71.6,69.1,29.95,SE,135,5.8,-999.0,92,-99.99,,,0.00,Acu-Link.com,2013-06-19 07:25:00,
2013-06-19 02:40:00,71.2,69.4,29.94,ESE,112,4.7,-999.0,94,-99.99,,,0.00,Acu-Link.com,2013-06-19 07:40:00,
2013-06-19 02:55:00,70.9,69.7,29.94,ESE,112,4.3,-999.0,96,-99.99,,,0.00,Acu-Link.com,2013-06-19 07:55:00,
2013-06-19 03:10:00,70.7,69.8,29.94,ESE,112,4.3,-999.0,97,-99.99,,,0.00,Acu-Link.com,2013-06-19 08:10:00,
2013-06-19 03:25:00,70.7,69.8,29.94,SSE,157,3.1,-999.0,97,-99.99,,,0.00,Acu-Link.com,2013-06-19 08:25:00,
2013-06-19 03:41:00,70.3,69.7,29.93,ESE,112,4.7,-999.0,98,-99.99,,,0.00,Acu-Link.com,2013-06-19 08:41:00,
2013-06-19 03:56:00,70.3,69.7,29.93,ESE,112,4.7,-999.0,98,-99.99,,,0.00,Acu-Link.com,2013-06-19 08:56:00,
2013-06-19 04:11:00,70.3,69.7,29.93,ESE,112,4.3,-999.0,98,-99.99,,,0.00,Acu-Link.com,2013-06-19 09:11:00,
2013-06-19 04:26:00,70.7,70.1,29.94,SE,135,7.4,-999.0,98,-99.99,,,0.00,Acu-Link.com,2013-06-19 09:26:00,
2013-06-19 04:41:00,70.7,70.1,29.94,East,90,1.1,-999.0,98,-99.99,,,0.00,Acu-Link.com,2013-06-19 09:41:00,
2013-06-19 04:56:00,70.5,69.9,29.96,ENE,67,0.0,-999.0,98,-99.99,,,0.00,Acu-Link.com,2013-06-19 09:56:00,
2013-06-19 05:11:00,70.3,69.7,29.97,ESE,112,1.1,-999.0,98,-99.99,,,0.00,Acu-Link.com,2013-06-19 10:11:00,
2013-06-19 05:27:00,70.3,69.7,29.94,SE,135,0.0,-999.0,98,-99.99,,,0.00,Acu-Link.com,2013-06-19 10:27:00,
2013-06-19 05:42:00,70.5,69.9,29.91,ESE,112,9.8,-999.0,98,-99.99,,,0.00,Acu-Link.com,2013-06-19 10:42:00,
2013-06-19 05:57:00,70.5,69.9,29.89,ESE,112,0.0,-999.0,98,-99.99,,,0.00,Acu-Link.com,2013-06-19 10:57:00,
2013-06-19 06:12:00,70.3,69.7,29.92,ESE,112,4.3,-999.0,98,-99.99,,,0.00,Acu-Link.com,2013-06-19 11:12:00,
2013-06-19 06:27:00,70.2,69.6,29.94,SE,135,0.0,-999.0,98,-99.99,,,0.00,Acu-Link.com,2013-06-19 11:27:00,
2013-06-19 06:43:00,70.2,69.6,29.95,ESE,112,4.7,-999.0,98,-99.99,,,0.00,Acu-Link.com,2013-06-19 11:43:00,
2013-06-19 06:58:00,70.3,69.7,29.95,ESE,112,5.8,-999.0,98,-99.99,,,0.00,Acu-Link.com,2013-06-19 11:58:00,
2013-06-19 07:13:00,70.3,69.7,29.95,ESE,112,4.3,-999.0,98,-99.99,,,0.00,Acu-Link.com,2013-06-19 12:13:00,
2013-06-19 07:28:00,71.8,71.2,29.96,ESE,112,4.7,-999.0,98,-99.99,,,0.00,Acu-Link.com,2013-06-19 12:28:00,
2013-06-19 07:43:00,72.0,71.4,29.96,SSE,157,3.8,-999.0,98,-99.99,,,0.00,Acu-Link.com,2013-06-19 12:43:00,
2013-06-19 07:59:00,72.7,71.5,29.98,ESE,112,3.1,-999.0,96,-99.99,,,0.00,Acu-Link.com,2013-06-19 12:59:00,
2013-06-19 08:14:00,72.7,71.5,29.99,East,90,2.2,-999.0,96,-99.99,,,0.00,Acu-Link.com,2013-06-19 13:14:00,
2013-06-19 08:29:00,72.9,71.6,30.00,ENE,67,5.8,-999.0,96,-99.99,,,0.00,Acu-Link.com,2013-06-19 13:29:00,
2013-06-19 08:44:00,73.0,71.2,30.01,East,90,7.8,-999.0,94,-99.99,,,0.00,Acu-Link.com,2013-06-19 13:44:00,
2013-06-19 08:59:00,72.7,71.2,30.02,NNE,22,4.3,-999.0,95,-99.99,,,0.00,Acu-Link.com,2013-06-19 13:59:00,
2013-06-19 09:15:00,72.9,71.3,30.01,ENE,67,5.8,-999.0,95,-99.99,,,0.00,Acu-Link.com,2013-06-19 14:15:00,
2013-06-19 09:30:00,72.0,71.4,30.00,ENE,67,5.1,-999.0,98,-99.99,,,0.00,Acu-Link.com,2013-06-19 14:30:00,
2013-06-19 09:45:00,72.0,71.4,30.01,NE,45,6.3,-999.0,98,-99.99,,,0.00,Acu-Link.com,2013-06-19 14:45:00,
2013-06-19 10:00:00,72.1,71.5,30.00,NE,45,5.8,-999.0,98,-99.99,,,0.00,Acu-Link.com,2013-06-19 15:00:00,
2013-06-19 10:16:00,72.3,71.7,30.00,ENE,67,5.8,-999.0,98,-99.99,,,0.00,Acu-Link.com,2013-06-19 15:16:00,
2013-06-19 10:31:00,72.3,71.7,30.00,ESE,112,0.0,-999.0,98,-99.99,,,0.00,Acu-Link.com,2013-06-19 15:31:00,
2013-06-19 10:46:00,72.5,71.9,30.00,SSE,157,4.3,-999.0,98,-99.99,,,0.00,Acu-Link.com,2013-06-19 15:46:00,
2013-06-19 11:01:00,72.5,71.9,29.98,SSW,202,4.3,-999.0,98,-99.99,,,0.02,Acu-Link.com,2013-06-19 16:01:00,
2013-06-19 11:16:00,72.0,71.4,30.02,West,270,0.0,-999.0,98,-99.99,,,0.05,Acu-Link.com,2013-06-19 16:16:00,
2013-06-19 11:32:00,71.6,71.0,30.03,West,270,6.3,-999.0,98,-99.99,,,0.09,Acu-Link.com,2013-06-19 16:32:00,
2013-06-19 11:47:00,71.4,70.8,30.02,West,270,7.8,-999.0,98,-99.99,,,0.14,Acu-Link.com,2013-06-19 16:47:00,
2013-06-19 12:02:00,71.4,70.8,30.01,West,270,8.9,-999.0,98,-99.99,,,0.27,Acu-Link.com,2013-06-19 17:02:00,
2013-06-19 12:17:00,71.2,70.6,30.01,West,270,9.8,-999.0,98,-99.99,,,0.34,Acu-Link.com,2013-06-19 17:17:00,
2013-06-19 12:32:00,71.1,70.5,30.02,West,270,10.3,-999.0,98,-99.99,,,0.40,Acu-Link.com,2013-06-19 17:32:00,
2013-06-19 12:48:00,70.2,69.6,30.02,SW,225,10.3,-999.0,98,-99.99,,,0.47,Acu-Link.com,2013-06-19 17:48:00,
2013-06-19 13:03:00,69.3,68.4,30.00,SSW,202,11.4,-999.0,97,-99.99,,,0.57,Acu-Link.com,2013-06-19 18:03:00,
2013-06-19 13:18:00,69.3,66.8,29.96,South,180,19.0,-999.0,92,-99.99,,,0.65,Acu-Link.com,2013-06-19 18:18:00,
2013-06-19 13:33:00,69.3,66.5,29.92,SSW,202,9.8,-999.0,91,-99.99,,,0.72,Acu-Link.com,2013-06-19 18:33:00,
2013-06-19 13:48:00,70.2,67.7,29.90,South,180,15.0,-999.0,92,-99.99,,,0.72,Acu-Link.com,2013-06-19 18:48:00,
2013-06-19 14:03:00,74.5,64.8,29.77,WSW,247,18.6,-999.0,72,-99.99,,,1.56,Acu-Link.com,2013-06-19 19:03:00,
2013-06-19 14:19:00,73.4,66.8,29.80,SSW,202,22.1,-999.0,80,-99.99,,,2.48,Acu-Link.com,2013-06-19 19:19:00,
2013-06-19 14:34:00,74.7,66.2,29.81,South,180,19.0,-999.0,75,-99.99,,,3.04,Acu-Link.com,2013-06-19 19:34:00,
2013-06-19 14:49:00,77.4,65.5,29.80,SSE,157,11.4,-999.0,67,-99.99,,,3.10,Acu-Link.com,2013-06-19 19:49:00,
2013-06-19 15:05:00,78.6,65.8,29.83,SSE,157,11.0,-999.0,65,-99.99,,,3.10,Acu-Link.com,2013-06-19 20:05:00,
2013-06-19 15:20:00,79.3,66.1,29.82,ESE,112,6.3,-999.0,64,-99.99,,,3.10,Acu-Link.com,2013-06-19 20:20:00,
2013-06-19 15:35:00,80.1,66.3,29.84,SSE,157,6.3,-999.0,63,-99.99,,,3.10,Acu-Link.com,2013-06-19 20:35:00,
2013-06-19 15:50:00,82.9,67.1,29.83,SSE,157,2.2,-999.0,59,-99.99,,,3.10,Acu-Link.com,2013-06-19 20:50:00,
2013-06-19 16:05:00,84.0,66.1,29.84,ESE,112,1.1,-999.0,55,-99.99,,,3.10,Acu-Link.com,2013-06-19 21:05:00,
2013-06-19 16:21:00,84.0,65.0,29.86,North,0,2.2,-999.0,53,-99.99,,,3.10,Acu-Link.com,2013-06-19 21:21:00,
2013-06-19 16:36:00,86.0,66.8,29.86,ESE,112,0.0,-999.0,53,-99.99,,,3.10,Acu-Link.com,2013-06-19 21:36:00,
2013-06-19 16:51:00,86.2,67.6,29.86,SE,135,6.3,-999.0,54,-99.99,,,3.10,Acu-Link.com,2013-06-19 21:51:00,
2013-06-19 17:06:00,86.4,67.2,29.86,ESE,112,8.9,-999.0,53,-99.99,,,3.10,Acu-Link.com,2013-06-19 22:06:00,
2013-06-19 17:21:00,86.7,67.0,29.86,SE,135,7.8,-999.0,52,-99.99,,,3.10,Acu-Link.com,2013-06-19 22:21:00,
2013-06-19 17:37:00,85.8,66.7,29.85,ESE,112,9.8,-999.0,53,-99.99,,,3.10,Acu-Link.com,2013-06-19 22:37:00,
2013-06-19 17:52:00,86.0,66.3,29.85,ESE,112,5.1,-999.0,52,-99.99,,,3.10,Acu-Link.com,2013-06-19 22:52:00,
2013-06-19 18:07:00,87.6,66.1,29.85,ESE,112,5.8,-999.0,49,-99.99,,,3.10,Acu-Link.com,2013-06-19 23:07:00,
2013-06-19 18:22:00,87.4,65.3,29.84,ESE,112,5.8,-999.0,48,-99.99,,,3.10,Acu-Link.com,2013-06-19 23:22:00,
2013-06-19 18:37:00,86.7,65.8,29.84,SE,135,7.8,-999.0,50,-99.99,,,3.10,Acu-Link.com,2013-06-19 23:37:00,
2013-06-19 18:53:00,86.5,65.1,29.85,SSE,157,7.4,-999.0,49,-99.99,,,3.10,Acu-Link.com,2013-06-19 23:53:00,
2013-06-19 19:08:00,84.7,64.6,29.85,SE,135,8.3,-999.0,51,-99.99,,,3.10,Acu-Link.com,2013-06-20 00:08:00,
2013-06-19 19:23:00,83.7,65.8,29.86,SSE,157,5.8,-999.0,55,-99.99,,,3.10,Acu-Link.com,2013-06-20 00:23:00,
2013-06-19 19:38:00,83.1,65.3,29.87,SSE,157,6.7,-999.0,55,-99.99,,,3.10,Acu-Link.com,2013-06-20 00:38:00,
2013-06-19 19:53:00,82.8,65.4,29.88,SE,135,3.1,-999.0,56,-99.99,,,3.10,Acu-Link.com,2013-06-20 00:53:00,
2013-06-19 20:09:00,81.9,66.6,29.89,ESE,112,6.3,-999.0,60,-99.99,,,3.10,Acu-Link.com,2013-06-20 01:09:00,
2013-06-19 20:24:00,80.6,67.3,29.88,SSE,157,4.7,-999.0,64,-99.99,,,3.10,Acu-Link.com,2013-06-20 01:24:00,
2013-06-19 20:39:00,79.3,67.4,29.87,ESE,112,5.1,-999.0,67,-99.99,,,3.10,Acu-Link.com,2013-06-20 01:39:00,
2013-06-19 20:54:00,78.6,67.2,29.86,SE,135,4.7,-999.0,68,-99.99,,,3.10,Acu-Link.com,2013-06-20 01:54:00,
2013-06-19 21:10:00,77.7,67.5,29.86,ESE,112,4.3,-999.0,71,-99.99,,,3.10,Acu-Link.com,2013-06-20 02:10:00,
2013-06-19 21:25:00,77.4,68.4,29.87,SE,135,5.8,-999.0,74,-99.99,,,3.10,Acu-Link.com,2013-06-20 02:25:00,
2013-06-19 21:40:00,77.2,69.0,29.88,SSE,157,6.7,-999.0,76,-99.99,,,3.10,Acu-Link.com,2013-06-20 02:40:00,
2013-06-19 21:55:00,76.8,70.2,29.88,SE,135,7.8,-999.0,80,-99.99,,,3.10,Acu-Link.com,2013-06-20 02:55:00,
2013-06-19 22:10:00,76.5,71.3,29.88,SE,135,8.9,-999.0,84,-99.99,,,3.10,Acu-Link.com,2013-06-20 03:10:00,
2013-06-19 22:26:00,76.1,72.3,29.88,SE,135,9.4,-999.0,88,-99.99,,,3.10,Acu-Link.com,2013-06-20 03:26:00,
2013-06-19 22:41:00,76.3,73.1,29.89,ESE,112,8.3,-999.0,90,-99.99,,,3.10,Acu-Link.com,2013-06-20 03:41:00,
2013-06-19 22:56:00,76.8,74.0,29.89,SSE,157,12.5,-999.0,91,-99.99,,,3.10,Acu-Link.com,2013-06-20 03:56:00,
2013-06-19 23:11:00,77.0,74.5,29.89,SE,135,8.3,-999.0,92,-99.99,,,3.10,Acu-Link.com,2013-06-20 04:11:00,
2013-06-19 23:26:00,76.3,73.8,29.88,SSE,157,11.9,-999.0,92,-99.99,,,3.10,Acu-Link.com,2013-06-20 04:26:00,
2013-06-19 23:41:00,75.9,73.7,29.88,SSE,157,9.8,-999.0,93,-99.99,,,3.10,Acu-Link.com,2013-06-20 04:41:00,
2013-06-19 23:56:00,75.6,73.1,29.87,SE,135,11.0,-999.0,92,-99.99,,,3.10,Acu-Link.com,2013-06-20 04:56:00,